createdAt,value
2022-12-24T00:02:18.665Z,-2.7
2022-12-24T00:07:16.838Z,-2.5
2022-12-24T00:12:15.209Z,-2.5
2022-12-24T00:17:13.512Z,-2.5
2022-12-24T00:22:11.502Z,-2.5
2022-12-24T00:27:09.739Z,-2.7
2022-12-24T00:32:08.048Z,-2.7
2022-12-24T00:37:06.845Z,-2.7
2022-12-24T00:42:04.955Z,-2.8
2022-12-24T00:47:06.823Z,-2.8
2022-12-24T00:52:01.706Z,-2.9
2022-12-24T00:56:59.921Z,-2.9
2022-12-24T01:01:58.548Z,-2.9
2022-12-24T01:06:56.709Z,-2.7
2022-12-24T01:11:55.205Z,-2.6
2022-12-24T01:16:53.771Z,-2.6
2022-12-24T01:21:51.926Z,-2.5
2022-12-24T01:26:50.367Z,-2.4
2022-12-24T01:31:48.717Z,-2.2
2022-12-24T01:36:47.293Z,-2.1
2022-12-24T01:41:45.373Z,-2.3
2022-12-24T01:46:41.638Z,-2.5
2022-12-24T01:51:39.790Z,-2.7
2022-12-24T01:56:38.025Z,-2.9
2022-12-24T02:01:31.567Z,-3
2022-12-24T02:06:25.835Z,-3
2022-12-24T02:11:23.977Z,-3.2
2022-12-24T02:16:22.131Z,-3.3
2022-12-24T02:21:20.161Z,-3.5
2022-12-24T02:26:18.318Z,-3.7
2022-12-24T02:31:16.701Z,-3.8
2022-12-24T02:36:15.188Z,-3.7
2022-12-24T02:41:13.564Z,-3.6
2022-12-24T02:46:12.126Z,-3.6
2022-12-24T02:51:10.406Z,-3.7
2022-12-24T02:56:08.600Z,-3.5
2022-12-24T03:01:07.308Z,-3
2022-12-24T03:06:05.645Z,-2.7
2022-12-24T03:11:04.138Z,-2.5
2022-12-24T03:16:02.556Z,-2.4
2022-12-24T03:21:00.827Z,-2.4
2022-12-24T03:25:59.073Z,-2.5
2022-12-24T03:30:57.256Z,-2.4
2022-12-24T03:35:55.676Z,-2.4
2022-12-24T03:40:53.747Z,-2.4
2022-12-24T03:45:52.212Z,-2.3
2022-12-24T03:50:50.640Z,-2.1
2022-12-24T03:55:48.919Z,-2
2022-12-24T04:00:47.441Z,-1.9
2022-12-24T04:05:45.826Z,-1.9
2022-12-24T04:10:44.061Z,-1.8
2022-12-24T04:15:42.337Z,-1.9
2022-12-24T04:20:40.771Z,-2
2022-12-24T04:25:39.017Z,-2
2022-12-24T04:30:37.565Z,-2
2022-12-24T04:35:36.079Z,-2.1
2022-12-24T04:40:34.270Z,-2.4
2022-12-24T04:45:32.504Z,-2.5
2022-12-24T04:50:30.597Z,-2.7
2022-12-24T04:55:28.711Z,-2.9
2022-12-24T05:00:26.862Z,-3.1
2022-12-24T05:05:25.023Z,-3.3
2022-12-24T05:10:23.133Z,-3.6
2022-12-24T05:15:21.207Z,-3.8
2022-12-24T05:20:19.352Z,-4
2022-12-24T05:25:18.073Z,-4
2022-12-24T05:30:16.211Z,-4.1
2022-12-24T05:35:14.462Z,-4.2
2022-12-24T05:40:12.675Z,-4.2
2022-12-24T05:45:11.160Z,-3.9
2022-12-24T05:50:09.666Z,-3.4
2022-12-24T05:55:08.268Z,-2.9
2022-12-24T06:00:07.077Z,-2.7
2022-12-24T06:05:05.828Z,-2.4
2022-12-24T06:10:04.265Z,-2.4
2022-12-24T06:15:03.045Z,-2.4
2022-12-24T06:20:01.392Z,-2.4
2022-12-24T06:24:59.892Z,-2.2
2022-12-24T06:29:58.356Z,-2
2022-12-24T06:34:57.302Z,-1.3
2022-12-24T06:39:56.166Z,-0.3
2022-12-24T06:44:55.663Z,0.8
2022-12-24T06:49:55.010Z,1.7
2022-12-24T06:54:54.311Z,2.1
2022-12-24T06:59:53.072Z,2.3
2022-12-24T07:04:51.271Z,2
2022-12-24T07:09:47.680Z,2.1
2022-12-24T07:14:45.909Z,2.2
2022-12-24T07:19:44.327Z,2.5
2022-12-24T07:24:43.271Z,3.2
2022-12-24T07:29:43.267Z,5.4
2022-12-24T07:34:44.601Z,6.6
2022-12-24T07:39:42.782Z,6.8
2022-12-24T07:44:39.959Z,5.6
2022-12-24T07:49:37.505Z,5
2022-12-24T07:54:35.735Z,4.3
2022-12-24T07:59:33.582Z,4.3
2022-12-24T08:04:32.063Z,3.9
2022-12-24T08:09:30.398Z,3.9
2022-12-24T08:14:28.796Z,4.3
2022-12-24T08:19:27.736Z,4.7
2022-12-24T08:24:26.012Z,4.6
2022-12-24T08:29:24.340Z,4.4
2022-12-24T08:34:22.948Z,4.4
2022-12-24T08:39:21.976Z,5.2
2022-12-24T08:44:21.206Z,5.7
2022-12-24T08:49:20.171Z,6.5
2022-12-24T08:54:20.199Z,7.2
2022-12-24T08:59:19.243Z,7.2
2022-12-24T09:04:17.329Z,7.2
2022-12-24T09:09:15.956Z,7.1
2022-12-24T09:14:13.886Z,6.7
2022-12-24T09:19:11.957Z,6.8
2022-12-24T09:24:11.117Z,7.8
2022-12-24T09:29:11.464Z,9.4
2022-12-24T09:34:13.095Z,11.7
2022-12-24T09:39:13.944Z,13.7
2022-12-24T09:44:13.661Z,14.4
2022-12-24T09:49:12.734Z,16.7
2022-12-24T09:54:14.712Z,18.9
2022-12-24T09:59:10.680Z,16.6
2022-12-24T10:04:07.991Z,15.4
2022-12-24T10:09:05.314Z,14.4
2022-12-24T10:14:03.229Z,13.8
2022-12-24T10:19:01.275Z,13.5
2022-12-24T10:23:59.212Z,13.1
2022-12-24T10:28:57.243Z,12.6
2022-12-24T10:33:56.036Z,13.3
2022-12-24T10:38:55.516Z,13.7
2022-12-24T10:43:53.148Z,12.5
2022-12-24T10:48:51.219Z,12.1
2022-12-24T10:53:50.101Z,13.1
2022-12-24T10:58:48.470Z,12.8
2022-12-24T11:03:46.449Z,11.8
2022-12-24T11:08:44.797Z,12.1
2022-12-24T11:13:43.639Z,12.3
2022-12-24T11:18:45.206Z,11.4
2022-12-24T11:23:39.619Z,11.6
2022-12-24T11:28:38.321Z,12.1
2022-12-24T11:33:38.134Z,12.9
2022-12-24T11:38:35.989Z,12
2022-12-24T11:43:34.440Z,12.1
2022-12-24T11:48:32.458Z,12.2
2022-12-24T11:53:30.636Z,11.4
2022-12-24T11:58:28.509Z,11.5
2022-12-24T12:03:26.950Z,12
2022-12-24T12:08:25.754Z,12
2022-12-24T12:13:23.983Z,11.8
2022-12-24T12:18:22.517Z,12.3
2022-12-24T12:23:21.384Z,13.4
2022-12-24T12:28:19.839Z,12.9
2022-12-24T12:33:17.416Z,11.9
2022-12-24T12:38:14.482Z,10.6
2022-12-24T12:43:14.401Z,9.8
2022-12-24T12:48:09.775Z,9.5
2022-12-24T12:53:08.215Z,9.9
2022-12-24T12:58:06.821Z,10.3
2022-12-24T13:03:05.449Z,10.3
2022-12-24T13:08:03.928Z,10.4
2022-12-24T13:13:01.945Z,9.8
2022-12-24T13:17:59.552Z,8.9
2022-12-24T13:22:57.571Z,9
2022-12-24T13:27:55.671Z,8.6
2022-12-24T13:32:53.762Z,7.9
2022-12-24T13:37:51.598Z,7.5
2022-12-24T13:42:49.571Z,7.2
2022-12-24T13:47:47.810Z,7.1
2022-12-24T13:52:46.171Z,7.1
2022-12-24T13:57:44.568Z,7
2022-12-24T14:02:42.962Z,6.9
2022-12-24T14:07:41.201Z,6.8
2022-12-24T14:12:39.833Z,6.6
2022-12-24T14:17:37.927Z,6.4
2022-12-24T14:22:35.867Z,6.1
2022-12-24T14:27:34.135Z,5.9
2022-12-24T14:32:32.491Z,5.7
2022-12-24T14:37:34.630Z,5.4
2022-12-24T14:42:28.927Z,5.2
2022-12-24T14:47:27.287Z,5.2
2022-12-24T14:52:54.372Z,5.1
2022-12-24T14:57:23.817Z,5
2022-12-24T15:02:22.261Z,4.7
2022-12-24T15:07:19.987Z,4.6
2022-12-24T15:12:18.358Z,4.5
2022-12-24T15:17:16.537Z,4.4
2022-12-24T15:22:14.868Z,4.2
2022-12-24T15:27:13.533Z,4.4
2022-12-24T15:32:11.960Z,4.5
2022-12-24T15:37:10.340Z,4.5
2022-12-24T15:42:08.467Z,4.4
2022-12-24T15:47:06.828Z,4.4
2022-12-24T15:52:05.189Z,4.4
2022-12-24T15:57:03.291Z,4.3
2022-12-24T16:02:01.888Z,4.4
2022-12-24T16:07:00.174Z,4.4
2022-12-24T16:12:03.076Z,4.4
2022-12-24T16:16:57.206Z,4.3
2022-12-24T16:21:55.871Z,4.3
2022-12-24T16:26:54.455Z,4.2
2022-12-24T16:31:52.860Z,4.1
2022-12-24T16:36:51.626Z,4.1
2022-12-24T16:41:50.076Z,4.1
2022-12-24T16:46:47.850Z,4.1
2022-12-24T16:51:46.285Z,4.1
2022-12-24T16:56:44.829Z,4.1
2022-12-24T17:01:43.112Z,4.1
2022-12-24T17:06:41.442Z,4
2022-12-24T17:11:40.379Z,4
2022-12-24T17:16:38.826Z,4
2022-12-24T17:21:37.308Z,4.1
2022-12-24T17:26:35.768Z,4
2022-12-24T17:31:34.218Z,4.1
2022-12-24T17:36:32.556Z,4.1
2022-12-24T17:41:30.821Z,4.2
2022-12-24T17:46:29.310Z,4.2
2022-12-24T17:51:27.732Z,4.2
2022-12-24T17:56:25.936Z,4.1
2022-12-24T18:01:24.116Z,4
2022-12-24T18:06:22.318Z,4
2022-12-24T18:11:20.302Z,4
2022-12-24T18:16:18.640Z,3.8
2022-12-24T18:21:16.731Z,3.5
2022-12-24T18:26:14.722Z,3.3
2022-12-24T18:31:12.849Z,3
2022-12-24T18:36:10.631Z,2.1
2022-12-24T18:41:08.583Z,2.3
2022-12-24T18:46:06.555Z,2.3
2022-12-24T18:51:04.992Z,2.4
2022-12-24T18:56:03.511Z,2.8
2022-12-24T19:01:02.135Z,3
2022-12-24T19:06:00.840Z,3.1
2022-12-24T19:10:59.217Z,3.2
2022-12-24T19:15:57.521Z,3.2
2022-12-24T19:20:56.104Z,3.2
2022-12-24T19:25:54.723Z,3.3
2022-12-24T19:30:53.502Z,3.4
2022-12-24T19:35:52.123Z,3.4
2022-12-24T19:40:50.709Z,3.4
2022-12-24T19:45:49.005Z,3.3
2022-12-24T19:50:47.382Z,3.5
2022-12-24T19:55:45.899Z,3.4
2022-12-24T20:00:44.400Z,3.3
2022-12-24T20:05:43.035Z,3.2
2022-12-24T20:10:41.406Z,3.2
2022-12-24T20:15:40.090Z,3.1
2022-12-24T20:20:38.479Z,2.9
2022-12-24T20:25:37.019Z,2.8
2022-12-24T20:30:35.563Z,2.6
2022-12-24T20:35:33.555Z,2.3
2022-12-24T20:40:31.854Z,2.2
2022-12-24T20:45:30.460Z,2.1
2022-12-24T20:50:28.614Z,1.8
2022-12-24T20:55:26.596Z,1.7
2022-12-24T21:00:24.766Z,1.6
2022-12-24T21:05:19.641Z,1.6
2022-12-24T21:10:17.893Z,1.8
2022-12-24T21:15:16.395Z,2
2022-12-24T21:20:14.905Z,2.2
2022-12-24T21:25:13.166Z,2.1
2022-12-24T21:30:11.453Z,2.1
2022-12-24T21:35:10.114Z,2.1
2022-12-24T21:40:08.484Z,2.2
2022-12-24T21:45:06.883Z,2.2
2022-12-24T21:50:05.553Z,2
2022-12-24T21:55:03.645Z,2
2022-12-24T22:00:02.027Z,1.9
2022-12-24T22:05:00.502Z,2
2022-12-24T22:09:58.749Z,1.9
2022-12-24T22:14:56.883Z,1.8
2022-12-24T22:19:55.028Z,1.6
2022-12-24T22:24:53.249Z,1.6
2022-12-24T22:29:51.680Z,1.6
2022-12-24T22:34:49.804Z,1.6
2022-12-24T22:39:48.108Z,1.6
2022-12-24T22:44:46.419Z,1.8
2022-12-24T22:49:45.023Z,1.8
2022-12-24T22:54:43.281Z,2
2022-12-24T22:59:41.584Z,2.1
2022-12-24T23:04:39.819Z,2.2
2022-12-24T23:09:38.228Z,2.2
2022-12-24T23:14:36.820Z,2.3
2022-12-24T23:19:35.212Z,2.4
2022-12-24T23:24:33.277Z,2.3
2022-12-24T23:29:31.561Z,2.2
2022-12-24T23:34:29.703Z,2
2022-12-24T23:39:27.999Z,1.8
2022-12-24T23:44:31.903Z,1.6
2022-12-24T23:49:25.007Z,1.3
2022-12-24T23:54:22.997Z,1.1
2022-12-24T23:59:21.018Z,1
